• Join FlightAware (Why Join?)
  • Login
  • US Flag 
07:22PM EDT


 

Airport Tracker/Info


-or-


 

Live Flight TrackerFlight Track Log ✈ AWE1940 ✈ 20-Jun-2013 ✈ KCLT - KALB

Flight Track Log - Related Links

Times and Time Zones

All times are in EDT time to prevent confusion due to time zone crossing. See the AWE1940 flight status page for this flight to view local times or setup timezone preferences in your user account.

Time Position Orientation Groundspeed Altitude Reporting Facility
EDT Latitude Longitude Course Direction KTS MPH feet Rate Location/Type
10:31PM 35.1908 -80.9356 72° East 171 197 1,600  Level Atlanta Center
10:33PM 35.1253 -80.9025 158° South 247 284 3,400 2,100 Climbing Atlanta Center
10:34PM 35.0961 -80.8225 114° Southeast 275 316 6,500 2,760 Climbing Atlanta Center
10:35PM 35.2502 -80.5309 30° Northeast  Level FlightAware Approximate
10:35PM 35.1339 -80.7500 57° Northeast 292 336 9,000  Level Atlanta Center
10:36PM 35.3379 -80.4493 72° East  Level FlightAware Approximate
10:36PM 35.1733 -80.6694 59° Northeast 292 336 11,100  Level Atlanta Center
10:37PM 35.3755 -80.3068 72° East  Level FlightAware Approximate
10:37PM 35.2228 -80.5708 58° Northeast 309 356 13,100  Level Atlanta Center
10:38PM 35.2722 -80.4722 58° Northeast 331 381 16,200 2,400 Climbing Atlanta Center
10:39PM 35.3233 -80.3706 58° Northeast 336 387 18,000 1,980 Climbing Atlanta Center
10:40PM 35.3783 -80.2614 58° Northeast 360 414 20,200 1,860 Climbing Atlanta Center
10:41PM 35.4503 -80.0744 65° Northeast 372 428 23,000 1,200 Climbing Washington Center
10:42PM 35.4889 -79.9339 71° East 383 441 23,500 960 Climbing Washington Center
10:43PM 35.5231 -79.7978 73° East 396 456 25,000 1,380 Climbing Washington Center
10:44PM 35.5592 -79.6567 73° East 412 474 26,400 1,140 Climbing Washington Center
10:45PM 35.5978 -79.5028 73° East 446 513 27,300 1,020 Climbing Washington Center
10:46PM 35.6461 -79.3544 68° East 459 528 28,500 1,620 Climbing Washington Center
10:47PM 35.7069 -79.2089 63° Northeast 465 535 30,600 1,800 Climbing Washington Center
10:48PM 35.7614 -79.0656 65° Northeast 465 535 32,200 1,320 Climbing Washington Center
10:49PM 35.8219 -78.9222 62° Northeast 465 535 33,300 960 Climbing Washington Center
10:50PM 35.8711 -78.7936 65° Northeast 465 535 34,200 780 Climbing Washington Center
10:51PM 35.9397 -78.6525 59° Northeast 465 535 35,000 360 Climbing Washington Center
10:52PM 36.0117 -78.5194 56° Northeast 465 535 35,000  Level Washington Center
10:53PM 36.0983 -78.3967 49° Northeast 465 535 35,000  Level Washington Center
10:54PM 36.1844 -78.2736 49° Northeast 465 535 35,000  Level Washington Center
10:55PM 36.2664 -78.1500 51° Northeast 465 535 35,000  Level Washington Center
10:56PM 36.3503 -78.0292 49° Northeast 465 535 35,000  Level Washington Center
10:57PM 36.4300 -77.9075 51° Northeast 465 535 35,000  Level Washington Center
10:58PM 36.5117 -77.7833 51° Northeast 465 535 35,000  Level Washington Center
10:59PM 36.5950 -77.6642 49° Northeast 465 535 35,000  Level Washington Center
11:00PM 36.6744 -77.5419 51° Northeast 460 529 35,000  Level Washington Center
11:01PM 36.7575 -77.4222 49° Northeast 460 529 35,000  Level Washington Center
11:02PM 36.8472 -77.2867 50° Northeast 460 529 35,000  Level Washington Center
11:03PM 36.9261 -77.1664 51° Northeast 460 529 35,000  Level Washington Center
11:04PM 37.0069 -77.0458 50° Northeast 455 524 35,000  Level Washington Center
11:05PM 37.0856 -76.9222 51° Northeast 450 518 35,000  Level Washington Center
11:06PM 37.1661 -76.7958 51° Northeast 450 518 35,000  Level Washington Center
11:07PM 37.2486 -76.6747 49° Northeast 450 518 35,000  Level Washington Center
11:08PM 37.3289 -76.5503 51° Northeast 450 518 35,000  Level Washington Center
11:09PM 37.4006 -76.4389 51° Northeast 455 524 35,000  Level Washington Center
11:10PM 37.4847 -76.3167 49° Northeast 455 524 35,000  Level Washington Center
11:11PM 37.5856 -76.2181 38° Northeast 448 516 35,000 -60 Level Washington Center
11:12PM 37.7006 -76.1219 33° Northeast 448 516 34,900  Descending Washington Center
11:13PM 37.7908 -76.0306 39° Northeast 448 516 35,000  Climbing Washington Center
11:14PM 37.8953 -75.9469 32° Northeast 455 524 35,000  Level Washington Center
11:15PM 38.0081 -75.8711 28° Northeast 455 524 35,000  Level Washington Center
11:16PM 38.1167 -75.7950 29° Northeast 445 512 35,000  Level Washington Center
11:17PM 38.2253 -75.7186 29° Northeast 440 506 35,000  Level Washington Center
11:18PM 38.3461 -75.6419 26° Northeast 434 499 35,000 -660 Level Washington Center
11:19PM 38.4525 -75.5706 28° Northeast 429 494 33,700 -1,200 Descending Washington Center
11:20PM 38.5608 -75.4881 31° Northeast 429 494 32,600 -1,080 Descending Washington Center
11:21PM 38.6692 -75.4108 29° Northeast 434 499 31,600 -900 Descending Washington Center
11:22PM 38.7817 -75.3361 27° Northeast 440 506 30,900 -360 Descending Washington Center
11:23PM 38.8919 -75.2531 30° Northeast 446 513 30,900  Level Washington Center
11:24PM 39.0022 -75.1775 28° Northeast 451 519 30,900  Level Washington Center
11:25PM 39.1122 -75.0967 30° Northeast 451 519 30,900  Level Washington Center
11:26PM 39.2244 -75.0208 28° Northeast 451 519 30,900  Level Washington Center
11:27PM 39.3367 -74.9369 30° Northeast 457 526 30,900  Level Washington Center
11:28PM 39.4444 -74.8606 29° Northeast 452 520 30,900  Level Washington Center
11:29PM 39.5525 -74.7814 29° Northeast 452 520 30,900  Level Washington Center
11:30PM 39.6603 -74.7019 30° Northeast 447 514 30,900 60 Level Washington Center
11:31PM 39.7286 -74.6522 29° Northeast 456 525 31,000 60 Climbing New York Center
11:32PM 39.8397 -74.5747 28° Northeast 451 519 31,000  Level New York Center
11:33PM 39.9597 -74.5353 14° North 436 502 31,000  Level New York Center
11:34PM 40.0669 -74.5058 12° North 436 502 31,000 -60 Level New York Center
11:35PM 40.1911 -74.4689 13° North 441 507 30,900 -60 Descending New York Center
11:36PM 40.3108 -74.4347 12° North 441 507 30,900  Level New York Center
11:37PM 40.4328 -74.4028 11° North 441 507 30,900  Level New York Center
11:38PM 40.5569 -74.3683 12° North 441 507 30,900  Level New York Center
11:40PM 40.7675 -74.3200 10° North 451 519 30,900  Level Boston Center
11:41PM 40.8867 -74.2906 11° North 451 519 30,900  Level Boston Center
11:42PM 41.0122 -74.2583 11° North 451 519 30,900  Level Boston Center
11:43PM 41.1294 -74.2258 12° North 445 512 30,900  Level Boston Center
11:44PM 41.2508 -74.1933 11° North 440 506 30,900  Level Boston Center
11:45PM 41.3786 -74.1581 12° North 427 491 30,900 -1,620 Level Boston Center
11:46PM 41.4958 -74.1308 10° North 427 491 27,700 -3,240 Descending Boston Center
11:47PM 41.6108 -74.1006 11° North 447 514 24,500 -3,000 Descending Boston Center
11:48PM 41.7281 -74.0672 12° North 447 514 21,700 -3,000 Descending Boston Center
11:49PM 41.8492 -74.0397 10° North 413 475 18,600 -2,940 Descending Boston Center
11:50PM 41.9581 -74.0119 11° North 393 452 15,900 -2,700 Descending Boston Center
11:51PM 42.0625 -73.9864 10° North 393 452 13,300 -2,460 Descending Boston Center
11:52PM 42.1547 -73.9553 14° North 387 445 11,000 -1,500 Descending Boston Center
11:53PM 42.2511 -73.9239 14° North 341 392 10,400 -1,140 Descending Boston Center
11:54PM 42.3200 -73.9058 11° North 295 339 8,800 -2,100 Descending Boston Center
11:55PM 42.4017 -73.8797 13° North 270 311 6,300 -2,220 Descending Boston Center
11:56PM 42.4708 -73.8586 13° North 270 311 4,400 -1,680 Descending Boston Center
11:57PM 42.5522 -73.8353 12° North 275 316 3,000 -1,200 Descending Boston Center
11:58PM 42.6131 -73.8169 13° North 269 310 2,000 -600 Descending Boston Center
11:59PM 42.6944 -73.7961 11° North 263 303 1,900 -600 Descending Boston Center
11:59PM 42.6964 -73.8044 288° West 149 171 1,100 -1,620 Descending Boston Center